ADDS METAR Data INFO
IDs: Format: Raw Decoded Include TAF

Data at: 1243 UTC 19 Oct 2017

KPIH 191153Z 34004KT 10SM CLR 01/M04 A2999 RMK AO2 SLP140 T00111039 10106 20000 55004
KPIH 191053Z AUTO 00000KT 10SM CLR 01/M03 A2999 RMK AO2 SLP136 T00061033
KPIH 190953Z AUTO 36006KT 10SM CLR 01/M03 A3000 RMK AO2 SLP139 T00111028
KPIH 190853Z AUTO 01007KT 10SM CLR 02/M03 A3000 RMK AO2 SLP139 T00221028 56011
KPIH 190753Z AUTO 01005KT 10SM CLR 04/M03 A3001 RMK AO2 SLP139 T00441033
KPIH 190653Z AUTO 00000KT 10SM CLR 08/M04 A3002 RMK AO2 SLP138 T00831039 402170011
KPIH 190553Z AUTO 06003KT 10SM CLR 09/M04 A3004 RMK AO2 SLP147 T00941044 10194 20089 56010
KPIH 190453Z AUTO VRB03KT 10SM CLR 10/M04 A3004 RMK AO2 SLP153 T01001044
KPIH 190353Z 00000KT 10SM CLR 11/M04 A3006 RMK AO2 SLP165 T01111044
KPIH 190253Z 19004KT 10SM CLR 12/M05 A3007 RMK AO2 SLP175 T01221050 56004
KPIH 190153Z 11003KT 10SM CLR 13/M03 A3008 RMK AO2 SLP176 T01331028
KPIH 190053Z 16004KT 10SM CLR 16/M02 A3008 RMK AO2 SLP175 T01611017
KPIH 182353Z 03003KT 10SM CLR 19/M01 A3008 RMK AO2 SLP172 T01891011 10217 20172 56016
KPIH 182253Z 28006KT 10SM CLR 21/M03 A3010 RMK AO2 SLP170 T02111033
KPIH 182153Z 27010KT 10SM CLR 21/M03 A3012 RMK AO2 SLP169 T02111028
KPIH 182053Z 25012KT 10SM CLR 21/M03 A3014 RMK AO2 SLP175 T02061028 58021
KPIH 181953Z 27006KT 10SM CLR 20/M03 A3017 RMK AO2 SLP183 T02001028
KPIH 181853Z 26008KT 10SM CLR 19/M03 A3020 RMK AO2 SLP196 T01891033
KPIH 181753Z 24007KT 10SM CLR 17/M03 A3021 RMK AO2 SLP207 T01721033 10172 20011 50002
KPIH 181653Z 24007KT 10SM CLR 14/M03 A3021 RMK AO2 SLP215 T01441028
KPIH 181553Z 00000KT 10SM CLR 08/M01 A3021 RMK AO2 SLP215 T00831011
KPIH 181453Z 09005KT 10SM CLR 04/M03 A3020 RMK AO2 SLP215 T00391028 53012
KPIH 181353Z 00000KT 10SM CLR 03/M04 A3018 RMK AO2 SLP208 T00281044
KPIH 181253Z 07003KT 10SM CLR 02/M02 A3016 RMK AO2 SLP205 T00171022
KPIH 181153Z 05006KT 10SM CLR 02/M02 A3017 RMK AO2 SLP202 T00221022 10133 20011 53005
KPIH 181053Z AUTO 00000KT 10SM CLR 06/M05 A3014 RMK AO2 SLP185 T00561050
KPIH 180953Z AUTO 21010KT 10SM CLR 09/M05 A3015 RMK AO2 SLP183 T00941050
KPIH 180853Z AUTO 20010KT 10SM CLR 11/M06 A3015 RMK AO2 SLP182 T01061056 53001
KPIH 180653Z AUTO 20012KT 10SM CLR 12/M06 A3014 RMK AO2 SLP180 T01221056 402001050
KPIH 180553Z AUTO 20008KT 10SM CLR 09/M05 A3014 RMK AO2 SLP191 T00941050 10178 20078 51015
KPIH 180453Z AUTO 23004KT 10SM CLR 08/M04 A3014 RMK AO2 SLP196 T00781039
KPIH 180353Z 18007KT 10SM CLR 13/M06 A3010 RMK AO2 SLP183 T01281056
KPIH 180253Z 19013KT 10SM CLR 16/M06 A3009 RMK AO2 SLP184 T01561061 51002
KPIH 180153Z 20013KT 10SM CLR 16/M06 A3009 RMK AO2 SLP187 T01611061
KPIH 180053Z 22009KT 10SM CLR 15/M05 A3009 RMK AO2 SLP186 T01501050